sensor_id;sensor_type;location;lat;lon;timestamp;P1;durP1;ratioP1;P2;durP2;ratioP2
12467;SDS011;57850;52.922;6.256;2024-01-27T00:00:33;9.90;;;2.33;;
12467;SDS011;57850;52.922;6.256;2024-01-27T00:02:59;10.00;;;2.25;;
12467;SDS011;57850;52.922;6.256;2024-01-27T00:05:26;24.17;;;3.42;;
12467;SDS011;57850;52.922;6.256;2024-01-27T00:07:54;9.07;;;2.70;;
12467;SDS011;57850;52.922;6.256;2024-01-27T00:10:21;12.15;;;3.20;;
12467;SDS011;57850;52.922;6.256;2024-01-27T00:12:47;15.05;;;4.05;;
12467;SDS011;57850;52.922;6.256;2024-01-27T00:15:14;20.65;;;3.42;;
12467;SDS011;57850;52.922;6.256;2024-01-27T00:17:40;18.83;;;2.95;;
12467;SDS011;57850;52.922;6.256;2024-01-27T00:20:07;12.05;;;2.95;;
12467;SDS011;57850;52.922;6.256;2024-01-27T00:22:33;15.18;;;3.55;;
12467;SDS011;57850;52.922;6.256;2024-01-27T00:25:01;11.30;;;3.55;;
12467;SDS011;57850;52.922;6.256;2024-01-27T00:27:28;16.70;;;3.22;;
12467;SDS011;57850;52.922;6.256;2024-01-27T00:29:54;16.10;;;2.70;;
12467;SDS011;57850;52.922;6.256;2024-01-27T00:32:21;14.77;;;2.53;;
12467;SDS011;57850;52.922;6.256;2024-01-27T00:34:47;11.15;;;3.42;;
12467;SDS011;57850;52.922;6.256;2024-01-27T00:37:13;15.90;;;3.08;;
12467;SDS011;57850;52.922;6.256;2024-01-27T00:39:40;12.60;;;3.78;;
12467;SDS011;57850;52.922;6.256;2024-01-27T00:42:08;8.02;;;2.75;;
12467;SDS011;57850;52.922;6.256;2024-01-27T00:44:35;13.55;;;2.95;;
12467;SDS011;57850;52.922;6.256;2024-01-27T00:47:02;12.25;;;2.83;;
12467;SDS011;57850;52.922;6.256;2024-01-27T00:49:28;10.02;;;2.58;;
12467;SDS011;57850;52.922;6.256;2024-01-27T00:51:55;9.10;;;2.90;;
12467;SDS011;57850;52.922;6.256;2024-01-27T00:54:21;17.63;;;4.20;;
12467;SDS011;57850;52.922;6.256;2024-01-27T00:56:48;22.60;;;3.80;;
12467;SDS011;57850;52.922;6.256;2024-01-27T00:59:16;8.57;;;2.83;;
12467;SDS011;57850;52.922;6.256;2024-01-27T01:01:42;7.60;;;2.22;;
12467;SDS011;57850;52.922;6.256;2024-01-27T01:04:08;19.77;;;3.03;;
12467;SDS011;57850;52.922;6.256;2024-01-27T01:06:35;15.68;;;2.83;;
12467;SDS011;57850;52.922;6.256;2024-01-27T01:09:04;18.88;;;3.67;;
12467;SDS011;57850;52.922;6.256;2024-01-27T01:11:31;13.32;;;3.50;;
12467;SDS011;57850;52.922;6.256;2024-01-27T01:13:57;11.05;;;2.90;;
12467;SDS011;57850;52.922;6.256;2024-01-27T01:16:25;16.13;;;3.08;;
12467;SDS011;57850;52.922;6.256;2024-01-27T01:18:51;9.27;;;2.88;;
12467;SDS011;57850;52.922;6.256;2024-01-27T01:21:18;15.95;;;3.25;;
12467;SDS011;57850;52.922;6.256;2024-01-27T01:23:44;17.42;;;3.25;;
12467;SDS011;57850;52.922;6.256;2024-01-27T01:26:11;10.32;;;3.08;;
12467;SDS011;57850;52.922;6.256;2024-01-27T01:28:37;20.10;;;4.03;;
12467;SDS011;57850;52.922;6.256;2024-01-27T01:31:06;11.75;;;3.00;;
12467;SDS011;57850;52.922;6.256;2024-01-27T01:33:34;10.68;;;2.38;;
12467;SDS011;57850;52.922;6.256;2024-01-27T01:36:00;8.82;;;3.10;;
12467;SDS011;57850;52.922;6.256;2024-01-27T01:38:26;10.88;;;3.22;;
12467;SDS011;57850;52.922;6.256;2024-01-27T01:40:52;11.43;;;3.20;;
12467;SDS011;57850;52.922;6.256;2024-01-27T01:43:18;10.55;;;2.40;;
12467;SDS011;57850;52.922;6.256;2024-01-27T01:45:45;14.35;;;3.13;;
12467;SDS011;57850;52.922;6.256;2024-01-27T01:48:11;10.88;;;2.90;;
12467;SDS011;57850;52.922;6.256;2024-01-27T01:50:39;15.43;;;2.67;;
12467;SDS011;57850;52.922;6.256;2024-01-27T01:53:06;21.08;;;3.63;;
12467;SDS011;57850;52.922;6.256;2024-01-27T01:55:33;6.65;;;2.20;;
12467;SDS011;57850;52.922;6.256;2024-01-27T01:57:59;15.10;;;3.25;;
12467;SDS011;57850;52.922;6.256;2024-01-27T02:00:26;15.27;;;2.35;;
12467;SDS011;57850;52.922;6.256;2024-01-27T02:02:52;18.85;;;3.20;;
12467;SDS011;57850;52.922;6.256;2024-01-27T02:05:19;15.85;;;2.47;;
12467;SDS011;57850;52.922;6.256;2024-01-27T02:07:47;7.13;;;3.05;;
12467;SDS011;57850;52.922;6.256;2024-01-27T02:10:14;17.63;;;3.60;;
12467;SDS011;57850;52.922;6.256;2024-01-27T02:12:41;14.00;;;4.18;;
12467;SDS011;57850;52.922;6.256;2024-01-27T02:15:09;10.93;;;3.33;;
12467;SDS011;57850;52.922;6.256;2024-01-27T02:17:35;15.45;;;3.10;;
12467;SDS011;57850;52.922;6.256;2024-01-27T02:20:02;17.15;;;3.60;;
12467;SDS011;57850;52.922;6.256;2024-01-27T02:22:29;15.43;;;3.28;;
12467;SDS011;57850;52.922;6.256;2024-01-27T02:24:57;9.35;;;3.72;;
12467;SDS011;57850;52.922;6.256;2024-01-27T02:27:23;11.57;;;3.40;;
12467;SDS011;57850;52.922;6.256;2024-01-27T02:29:50;13.35;;;2.78;;
12467;SDS011;57850;52.922;6.256;2024-01-27T02:32:16;11.40;;;2.88;;
12467;SDS011;57850;52.922;6.256;2024-01-27T02:34:42;17.10;;;3.53;;
12467;SDS011;57850;52.922;6.256;2024-01-27T02:37:09;15.85;;;3.67;;
12467;SDS011;57850;52.922;6.256;2024-01-27T02:39:35;15.05;;;3.42;;
12467;SDS011;57850;52.922;6.256;2024-01-27T02:42:03;16.30;;;2.72;;
12467;SDS011;57850;52.922;6.256;2024-01-27T02:44:30;10.48;;;2.70;;
12467;SDS011;57850;52.922;6.256;2024-01-27T02:46:56;12.23;;;2.38;;
12467;SDS011;57850;52.922;6.256;2024-01-27T02:49:23;14.68;;;3.25;;
12467;SDS011;57850;52.922;6.256;2024-01-27T02:51:49;14.05;;;2.58;;
12467;SDS011;57850;52.922;6.256;2024-01-27T02:54:16;12.23;;;2.75;;
12467;SDS011;57850;52.922;6.256;2024-01-27T02:56:42;9.43;;;2.50;;
12467;SDS011;57850;52.922;6.256;2024-01-27T02:59:10;17.75;;;3.03;;
12467;SDS011;57850;52.922;6.256;2024-01-27T03:01:37;18.70;;;2.92;;
12467;SDS011;57850;52.922;6.256;2024-01-27T03:04:04;15.40;;;2.70;;
12467;SDS011;57850;52.922;6.256;2024-01-27T03:06:30;12.70;;;2.33;;
12467;SDS011;57850;52.922;6.256;2024-01-27T03:08:56;9.48;;;2.42;;
12467;SDS011;57850;52.922;6.256;2024-01-27T03:11:23;14.30;;;3.33;;
12467;SDS011;57850;52.922;6.256;2024-01-27T03:13:49;8.80;;;2.25;;
12467;SDS011;57850;52.922;6.256;2024-01-27T03:16:17;15.60;;;2.53;;
12467;SDS011;57850;52.922;6.256;2024-01-27T03:18:45;10.88;;;2.38;;
12467;SDS011;57850;52.922;6.256;2024-01-27T03:21:11;11.70;;;3.13;;
12467;SDS011;57850;52.922;6.256;2024-01-27T03:23:38;14.45;;;3.22;;
12467;SDS011;57850;52.922;6.256;2024-01-27T03:26:04;10.05;;;2.22;;
12467;SDS011;57850;52.922;6.256;2024-01-27T03:28:31;15.63;;;3.17;;
12467;SDS011;57850;52.922;6.256;2024-01-27T03:30:57;17.30;;;3.25;;
12467;SDS011;57850;52.922;6.256;2024-01-27T03:33:26;11.10;;;2.30;;
12467;SDS011;57850;52.922;6.256;2024-01-27T03:35:54;16.05;;;2.75;;
12467;SDS011;57850;52.922;6.256;2024-01-27T03:38:20;10.68;;;2.90;;
12467;SDS011;57850;52.922;6.256;2024-01-27T03:40:47;9.73;;;2.83;;
12467;SDS011;57850;52.922;6.256;2024-01-27T03:43:13;15.18;;;2.70;;
12467;SDS011;57850;52.922;6.256;2024-01-27T03:45:40;15.13;;;2.88;;
12467;SDS011;57850;52.922;6.256;2024-01-27T03:48:06;11.40;;;2.97;;
12467;SDS011;57850;52.922;6.256;2024-01-27T03:50:34;13.45;;;2.50;;
12467;SDS011;57850;52.922;6.256;2024-01-27T03:53:00;16.13;;;3.10;;
12467;SDS011;57850;52.922;6.256;2024-01-27T03:55:27;9.07;;;2.92;;
12467;SDS011;57850;52.922;6.256;2024-01-27T03:57:53;12.20;;;2.50;;
12467;SDS011;57850;52.922;6.256;2024-01-27T04:00:20;9.35;;;2.65;;
12467;SDS011;57850;52.922;6.256;2024-01-27T04:02:46;18.27;;;3.35;;
12467;SDS011;57850;52.922;6.256;2024-01-27T04:05:13;9.70;;;3.15;;
12467;SDS011;57850;52.922;6.256;2024-01-27T04:07:41;17.42;;;3.63;;
12467;SDS011;57850;52.922;6.256;2024-01-27T04:10:07;18.27;;;3.58;;
12467;SDS011;57850;52.922;6.256;2024-01-27T04:12:34;14.13;;;3.38;;
12467;SDS011;57850;52.922;6.256;2024-01-27T04:15:00;10.57;;;2.80;;
12467;SDS011;57850;52.922;6.256;2024-01-27T04:17:27;14.30;;;3.50;;
12467;SDS011;57850;52.922;6.256;2024-01-27T04:19:53;13.23;;;3.03;;
12467;SDS011;57850;52.922;6.256;2024-01-27T04:22:19;15.70;;;3.10;;
12467;SDS011;57850;52.922;6.256;2024-01-27T04:24:47;15.00;;;3.13;;
12467;SDS011;57850;52.922;6.256;2024-01-27T04:27:14;8.00;;;2.70;;
12467;SDS011;57850;52.922;6.256;2024-01-27T04:29:40;13.40;;;3.30;;
12467;SDS011;57850;52.922;6.256;2024-01-27T04:32:07;12.43;;;3.05;;
12467;SDS011;57850;52.922;6.256;2024-01-27T04:34:33;17.50;;;3.05;;
12467;SDS011;57850;52.922;6.256;2024-01-27T04:36:59;21.60;;;3.83;;
12467;SDS011;57850;52.922;6.256;2024-01-27T04:39:26;18.20;;;3.20;;
12467;SDS011;57850;52.922;6.256;2024-01-27T04:41:54;13.70;;;3.50;;
12467;SDS011;57850;52.922;6.256;2024-01-27T04:44:20;8.80;;;2.38;;
12467;SDS011;57850;52.922;6.256;2024-01-27T04:46:47;11.82;;;3.47;;
12467;SDS011;57850;52.922;6.256;2024-01-27T04:49:13;18.27;;;2.80;;
12467;SDS011;57850;52.922;6.256;2024-01-27T04:51:40;16.95;;;2.95;;
12467;SDS011;57850;52.922;6.256;2024-01-27T04:54:07;11.48;;;3.35;;
12467;SDS011;57850;52.922;6.256;2024-01-27T04:56:33;11.68;;;3.08;;
12467;SDS011;57850;52.922;6.256;2024-01-27T04:59:01;18.83;;;2.95;;
12467;SDS011;57850;52.922;6.256;2024-01-27T05:01:27;21.00;;;2.67;;
12467;SDS011;57850;52.922;6.256;2024-01-27T05:03:54;9.57;;;2.70;;
12467;SDS011;57850;52.922;6.256;2024-01-27T05:06:21;15.35;;;3.17;;
12467;SDS011;57850;52.922;6.256;2024-01-27T05:08:47;14.13;;;2.83;;
12467;SDS011;57850;52.922;6.256;2024-01-27T05:11:13;10.25;;;2.92;;
12467;SDS011;57850;52.922;6.256;2024-01-27T05:13:40;14.82;;;2.70;;
12467;SDS011;57850;52.922;6.256;2024-01-27T05:16:08;10.02;;;3.05;;
12467;SDS011;57850;52.922;6.256;2024-01-27T05:18:34;11.00;;;2.33;;
12467;SDS011;57850;52.922;6.256;2024-01-27T05:21:01;17.17;;;2.92;;
12467;SDS011;57850;52.922;6.256;2024-01-27T05:23:27;10.00;;;3.08;;
12467;SDS011;57850;52.922;6.256;2024-01-27T05:25:54;11.35;;;2.35;;
12467;SDS011;57850;52.922;6.256;2024-01-27T05:28:20;8.98;;;2.83;;
12467;SDS011;57850;52.922;6.256;2024-01-27T05:30:47;9.85;;;2.70;;
12467;SDS011;57850;52.922;6.256;2024-01-27T05:33:15;11.38;;;2.50;;
12467;SDS011;57850;52.922;6.256;2024-01-27T05:35:41;25.75;;;3.40;;
12467;SDS011;57850;52.922;6.256;2024-01-27T05:38:08;16.02;;;4.05;;
12467;SDS011;57850;52.922;6.256;2024-01-27T05:40:34;11.52;;;3.45;;
12467;SDS011;57850;52.922;6.256;2024-01-27T05:43:01;24.90;;;2.95;;
12467;SDS011;57850;52.922;6.256;2024-01-27T05:45:27;8.27;;;3.35;;
12467;SDS011;57850;52.922;6.256;2024-01-27T05:47:54;14.50;;;2.65;;
12467;SDS011;57850;52.922;6.256;2024-01-27T05:50:22;16.95;;;2.70;;
12467;SDS011;57850;52.922;6.256;2024-01-27T05:52:48;18.13;;;3.10;;
12467;SDS011;57850;52.922;6.256;2024-01-27T05:55:15;13.00;;;2.97;;
12467;SDS011;57850;52.922;6.256;2024-01-27T05:57:42;15.25;;;2.95;;
12467;SDS011;57850;52.922;6.256;2024-01-27T06:00:09;7.17;;;2.30;;
12467;SDS011;57850;52.922;6.256;2024-01-27T06:02:35;13.93;;;3.05;;
12467;SDS011;57850;52.922;6.256;2024-01-27T06:05:02;15.63;;;2.80;;
12467;SDS011;57850;52.922;6.256;2024-01-27T06:07:30;18.23;;;3.05;;
12467;SDS011;57850;52.922;6.256;2024-01-27T06:09:56;14.25;;;2.80;;
12467;SDS011;57850;52.922;6.256;2024-01-27T06:12:23;13.35;;;2.35;;
12467;SDS011;57850;52.922;6.256;2024-01-27T06:14:50;9.43;;;2.75;;
12467;SDS011;57850;52.922;6.256;2024-01-27T06:17:16;9.50;;;2.60;;
12467;SDS011;57850;52.922;6.256;2024-01-27T06:19:43;10.43;;;2.80;;
12467;SDS011;57850;52.922;6.256;2024-01-27T06:22:10;16.77;;;3.35;;
12467;SDS011;57850;52.922;6.256;2024-01-27T06:24:42;8.25;;;2.80;;
12467;SDS011;57850;52.922;6.256;2024-01-27T06:27:09;9.48;;;2.60;;
12467;SDS011;57850;52.922;6.256;2024-01-27T06:29:35;25.57;;;3.60;;
12467;SDS011;57850;52.922;6.256;2024-01-27T06:32:02;13.07;;;3.23;;
12467;SDS011;57850;52.922;6.256;2024-01-27T06:34:29;16.38;;;3.00;;
12467;SDS011;57850;52.922;6.256;2024-01-27T06:36:55;19.15;;;2.80;;
12467;SDS011;57850;52.922;6.256;2024-01-27T06:39:21;10.70;;;2.70;;
12467;SDS011;57850;52.922;6.256;2024-01-27T06:41:49;10.27;;;4.07;;
12467;SDS011;57850;52.922;6.256;2024-01-27T06:44:16;16.63;;;3.20;;
12467;SDS011;57850;52.922;6.256;2024-01-27T06:46:42;13.40;;;2.85;;
12467;SDS011;57850;52.922;6.256;2024-01-27T06:49:10;22.25;;;3.00;;
12467;SDS011;57850;52.922;6.256;2024-01-27T06:51:36;15.38;;;3.47;;
12467;SDS011;57850;52.922;6.256;2024-01-27T06:54:02;11.20;;;3.22;;
12467;SDS011;57850;52.922;6.256;2024-01-27T06:56:29;7.10;;;2.90;;
12467;SDS011;57850;52.922;6.256;2024-01-27T06:58:57;18.55;;;3.50;;
12467;SDS011;57850;52.922;6.256;2024-01-27T07:01:24;17.27;;;2.43;;
12467;SDS011;57850;52.922;6.256;2024-01-27T07:03:50;16.77;;;3.25;;
12467;SDS011;57850;52.922;6.256;2024-01-27T07:06:16;10.18;;;3.03;;
12467;SDS011;57850;52.922;6.256;2024-01-27T07:08:43;12.95;;;3.40;;
12467;SDS011;57850;52.922;6.256;2024-01-27T07:11:10;14.13;;;3.05;;
12467;SDS011;57850;52.922;6.256;2024-01-27T07:13:37;9.70;;;3.47;;
12467;SDS011;57850;52.922;6.256;2024-01-27T07:16:05;16.00;;;3.65;;
12467;SDS011;57850;52.922;6.256;2024-01-27T07:18:32;12.70;;;3.92;;
12467;SDS011;57850;52.922;6.256;2024-01-27T07:21:00;17.20;;;4.13;;
12467;SDS011;57850;52.922;6.256;2024-01-27T07:23:27;15.05;;;5.20;;
12467;SDS011;57850;52.922;6.256;2024-01-27T07:25:53;11.45;;;4.15;;
12467;SDS011;57850;52.922;6.256;2024-01-27T07:28:20;17.08;;;5.20;;
12467;SDS011;57850;52.922;6.256;2024-01-27T07:30:46;13.35;;;4.97;;
12467;SDS011;57850;52.922;6.256;2024-01-27T07:33:14;15.15;;;4.82;;
12467;SDS011;57850;52.922;6.256;2024-01-27T07:35:40;19.70;;;5.40;;
12467;SDS011;57850;52.922;6.256;2024-01-27T07:38:07;18.27;;;4.90;;
12467;SDS011;57850;52.922;6.256;2024-01-27T07:40:34;9.70;;;5.00;;
12467;SDS011;57850;52.922;6.256;2024-01-27T07:43:00;16.63;;;6.90;;
12467;SDS011;57850;52.922;6.256;2024-01-27T07:45:27;11.38;;;5.63;;
12467;SDS011;57850;52.922;6.256;2024-01-27T07:47:53;13.27;;;5.07;;
12467;SDS011;57850;52.922;6.256;2024-01-27T07:50:21;17.02;;;5.18;;
12467;SDS011;57850;52.922;6.256;2024-01-27T07:52:48;10.02;;;5.35;;
12467;SDS011;57850;52.922;6.256;2024-01-27T07:55:14;14.80;;;5.88;;
12467;SDS011;57850;52.922;6.256;2024-01-27T07:57:42;14.52;;;6.38;;
12467;SDS011;57850;52.922;6.256;2024-01-27T08:00:09;33.33;;;15.00;;
12467;SDS011;57850;52.922;6.256;2024-01-27T08:02:35;13.67;;;8.23;;
12467;SDS011;57850;52.922;6.256;2024-01-27T08:05:02;17.85;;;7.40;;
12467;SDS011;57850;52.922;6.256;2024-01-27T08:07:30;14.35;;;7.25;;
12467;SDS011;57850;52.922;6.256;2024-01-27T08:09:57;20.23;;;7.70;;
12467;SDS011;57850;52.922;6.256;2024-01-27T08:12:23;27.92;;;7.50;;
12467;SDS011;57850;52.922;6.256;2024-01-27T08:14:50;16.27;;;7.45;;
12467;SDS011;57850;52.922;6.256;2024-01-27T08:17:16;15.98;;;7.60;;
12467;SDS011;57850;52.922;6.256;2024-01-27T08:19:42;14.07;;;7.15;;
12467;SDS011;57850;52.922;6.256;2024-01-27T08:22:09;21.75;;;8.90;;
12467;SDS011;57850;52.922;6.256;2024-01-27T08:24:37;20.55;;;7.78;;
12467;SDS011;57850;52.922;6.256;2024-01-27T08:27:04;19.05;;;7.38;;
12467;SDS011;57850;52.922;6.256;2024-01-27T08:29:30;21.05;;;7.75;;
12467;SDS011;57850;52.922;6.256;2024-01-27T08:31:58;17.02;;;7.18;;
12467;SDS011;57850;52.922;6.256;2024-01-27T08:34:24;19.75;;;7.40;;
12467;SDS011;57850;52.922;6.256;2024-01-27T08:36:51;25.42;;;8.65;;
12467;SDS011;57850;52.922;6.256;2024-01-27T08:39:17;16.52;;;7.82;;
12467;SDS011;57850;52.922;6.256;2024-01-27T08:41:44;22.73;;;9.02;;
12467;SDS011;57850;52.922;6.256;2024-01-27T08:44:11;26.98;;;7.88;;
12467;SDS011;57850;52.922;6.256;2024-01-27T08:46:37;22.25;;;8.23;;
12467;SDS011;57850;52.922;6.256;2024-01-27T08:49:04;25.20;;;9.43;;
12467;SDS011;57850;52.922;6.256;2024-01-27T08:51:30;22.02;;;8.65;;
12467;SDS011;57850;52.922;6.256;2024-01-27T08:53:57;21.10;;;8.93;;
12467;SDS011;57850;52.922;6.256;2024-01-27T08:56:23;15.98;;;8.00;;
12467;SDS011;57850;52.922;6.256;2024-01-27T08:58:51;22.77;;;8.55;;
12467;SDS011;57850;52.922;6.256;2024-01-27T09:01:17;22.80;;;8.15;;
12467;SDS011;57850;52.922;6.256;2024-01-27T09:03:44;18.55;;;7.28;;
12467;SDS011;57850;52.922;6.256;2024-01-27T09:06:11;22.13;;;6.78;;
12467;SDS011;57850;52.922;6.256;2024-01-27T09:08:37;19.45;;;6.40;;
12467;SDS011;57850;52.922;6.256;2024-01-27T09:11:04;16.55;;;6.25;;
12467;SDS011;57850;52.922;6.256;2024-01-27T09:13:30;10.88;;;5.30;;
12467;SDS011;57850;52.922;6.256;2024-01-27T09:15:59;14.20;;;5.97;;
12467;SDS011;57850;52.922;6.256;2024-01-27T09:18:25;17.00;;;5.43;;
12467;SDS011;57850;52.922;6.256;2024-01-27T09:20:52;16.55;;;5.90;;
12467;SDS011;57850;52.922;6.256;2024-01-27T09:23:18;11.73;;;5.35;;
12467;SDS011;57850;52.922;6.256;2024-01-27T09:25:45;15.45;;;5.55;;
12467;SDS011;57850;52.922;6.256;2024-01-27T09:28:11;16.13;;;5.32;;
12467;SDS011;57850;52.922;6.256;2024-01-27T09:30:39;13.75;;;6.18;;
12467;SDS011;57850;52.922;6.256;2024-01-27T09:33:07;17.25;;;5.53;;
12467;SDS011;57850;52.922;6.256;2024-01-27T09:35:33;9.02;;;4.63;;
12467;SDS011;57850;52.922;6.256;2024-01-27T09:38:00;11.65;;;4.75;;
12467;SDS011;57850;52.922;6.256;2024-01-27T09:40:26;12.20;;;4.68;;
12467;SDS011;57850;52.922;6.256;2024-01-27T09:42:53;13.77;;;5.05;;
12467;SDS011;57850;52.922;6.256;2024-01-27T09:45:21;16.52;;;5.18;;
12467;SDS011;57850;52.922;6.256;2024-01-27T09:47:47;11.82;;;4.45;;
12467;SDS011;57850;52.922;6.256;2024-01-27T09:50:15;11.68;;;4.85;;
12467;SDS011;57850;52.922;6.256;2024-01-27T09:52:43;10.95;;;4.65;;
12467;SDS011;57850;52.922;6.256;2024-01-27T09:55:10;19.35;;;5.65;;
12467;SDS011;57850;52.922;6.256;2024-01-27T09:57:37;10.38;;;4.70;;
12467;SDS011;57850;52.922;6.256;2024-01-27T10:00:05;11.23;;;4.75;;
12467;SDS011;57850;52.922;6.256;2024-01-27T10:02:33;10.52;;;5.28;;
12467;SDS011;57850;52.922;6.256;2024-01-27T10:05:00;16.92;;;4.97;;
12467;SDS011;57850;52.922;6.256;2024-01-27T10:07:28;14.55;;;4.90;;
12467;SDS011;57850;52.922;6.256;2024-01-27T10:09:55;14.40;;;5.05;;
12467;SDS011;57850;52.922;6.256;2024-01-27T10:12:21;13.00;;;5.20;;
12467;SDS011;57850;52.922;6.256;2024-01-27T10:14:48;15.10;;;5.18;;
12467;SDS011;57850;52.922;6.256;2024-01-27T10:17:20;19.50;;;5.97;;
12467;SDS011;57850;52.922;6.256;2024-01-27T10:19:47;11.85;;;5.13;;
12467;SDS011;57850;52.922;6.256;2024-01-27T10:22:13;9.40;;;4.60;;
12467;SDS011;57850;52.922;6.256;2024-01-27T10:24:41;14.32;;;5.93;;
12467;SDS011;57850;52.922;6.256;2024-01-27T10:27:07;13.88;;;4.95;;
12467;SDS011;57850;52.922;6.256;2024-01-27T10:29:35;16.15;;;5.53;;
12467;SDS011;57850;52.922;6.256;2024-01-27T10:32:08;9.98;;;5.25;;
12467;SDS011;57850;52.922;6.256;2024-01-27T10:34:35;16.80;;;4.97;;
12467;SDS011;57850;52.922;6.256;2024-01-27T10:37:01;13.18;;;5.22;;
12467;SDS011;57850;52.922;6.256;2024-01-27T10:39:28;15.07;;;6.05;;
12467;SDS011;57850;52.922;6.256;2024-01-27T10:41:56;13.27;;;5.68;;
12467;SDS011;57850;52.922;6.256;2024-01-27T10:44:25;14.45;;;5.75;;
12467;SDS011;57850;52.922;6.256;2024-01-27T10:46:53;16.77;;;5.90;;
12467;SDS011;57850;52.922;6.256;2024-01-27T10:49:20;11.85;;;5.38;;
12467;SDS011;57850;52.922;6.256;2024-01-27T10:51:51;13.02;;;5.20;;
12467;SDS011;57850;52.922;6.256;2024-01-27T10:54:21;16.88;;;5.25;;
12467;SDS011;57850;52.922;6.256;2024-01-27T10:56:49;14.80;;;5.60;;
12467;SDS011;57850;52.922;6.256;2024-01-27T10:59:19;14.93;;;5.63;;
12467;SDS011;57850;52.922;6.256;2024-01-27T11:01:46;16.10;;;5.03;;
12467;SDS011;57850;52.922;6.256;2024-01-27T11:04:12;15.05;;;5.35;;
12467;SDS011;57850;52.922;6.256;2024-01-27T11:06:40;12.57;;;5.10;;
12467;SDS011;57850;52.922;6.256;2024-01-27T11:09:08;13.13;;;4.93;;
12467;SDS011;57850;52.922;6.256;2024-01-27T11:11:34;14.88;;;5.35;;
12467;SDS011;57850;52.922;6.256;2024-01-27T11:14:01;10.20;;;4.88;;
12467;SDS011;57850;52.922;6.256;2024-01-27T11:16:29;19.48;;;5.15;;
12467;SDS011;57850;52.922;6.256;2024-01-27T11:18:55;11.98;;;4.90;;
12467;SDS011;57850;52.922;6.256;2024-01-27T11:21:22;14.48;;;5.32;;
12467;SDS011;57850;52.922;6.256;2024-01-27T11:23:48;21.88;;;5.45;;
12467;SDS011;57850;52.922;6.256;2024-01-27T11:26:17;16.05;;;5.75;;
12467;SDS011;57850;52.922;6.256;2024-01-27T11:28:44;14.05;;;4.95;;
12467;SDS011;57850;52.922;6.256;2024-01-27T11:31:10;12.73;;;5.20;;
12467;SDS011;57850;52.922;6.256;2024-01-27T11:33:45;13.98;;;5.40;;
12467;SDS011;57850;52.922;6.256;2024-01-27T11:36:20;13.30;;;5.82;;
12467;SDS011;57850;52.922;6.256;2024-01-27T11:38:47;15.50;;;5.28;;
12467;SDS011;57850;52.922;6.256;2024-01-27T11:41:22;11.18;;;5.57;;
12467;SDS011;57850;52.922;6.256;2024-01-27T11:43:51;14.73;;;5.20;;
12467;SDS011;57850;52.922;6.256;2024-01-27T11:46:17;12.80;;;5.35;;
12467;SDS011;57850;52.922;6.256;2024-01-27T11:48:45;18.08;;;5.38;;
12467;SDS011;57850;52.922;6.256;2024-01-27T11:51:11;12.35;;;4.82;;
12467;SDS011;57850;52.922;6.256;2024-01-27T11:53:38;11.85;;;5.03;;
12467;SDS011;57850;52.922;6.256;2024-01-27T11:56:04;14.73;;;5.18;;
12467;SDS011;57850;52.922;6.256;2024-01-27T11:58:31;15.52;;;5.50;;
12467;SDS011;57850;52.922;6.256;2024-01-27T12:00:57;12.65;;;4.53;;
12467;SDS011;57850;52.922;6.256;2024-01-27T12:03:24;14.38;;;4.50;;
12467;SDS011;57850;52.922;6.256;2024-01-27T12:05:52;12.32;;;4.32;;
12467;SDS011;57850;52.922;6.256;2024-01-27T12:08:19;12.07;;;4.40;;
12467;SDS011;57850;52.922;6.256;2024-01-27T12:10:45;10.18;;;4.00;;
12467;SDS011;57850;52.922;6.256;2024-01-27T12:13:12;11.70;;;4.82;;
12467;SDS011;57850;52.922;6.256;2024-01-27T12:15:39;15.32;;;4.47;;
12467;SDS011;57850;52.922;6.256;2024-01-27T12:18:05;14.00;;;4.15;;
12467;SDS011;57850;52.922;6.256;2024-01-27T12:20:32;15.65;;;4.88;;
12467;SDS011;57850;52.922;6.256;2024-01-27T12:23:06;12.98;;;5.10;;
12467;SDS011;57850;52.922;6.256;2024-01-27T12:25:32;16.67;;;4.85;;
12467;SDS011;57850;52.922;6.256;2024-01-27T12:28:01;15.07;;;4.53;;
12467;SDS011;57850;52.922;6.256;2024-01-27T12:30:27;10.90;;;4.30;;
12467;SDS011;57850;52.922;6.256;2024-01-27T12:32:54;13.35;;;5.10;;
12467;SDS011;57850;52.922;6.256;2024-01-27T12:35:20;12.27;;;4.65;;
12467;SDS011;57850;52.922;6.256;2024-01-27T12:37:47;17.58;;;4.95;;
12467;SDS011;57850;52.922;6.256;2024-01-27T12:40:20;14.85;;;4.32;;
12467;SDS011;57850;52.922;6.256;2024-01-27T12:42:46;17.30;;;4.90;;
12467;SDS011;57850;52.922;6.256;2024-01-27T12:45:13;13.43;;;5.60;;
12467;SDS011;57850;52.922;6.256;2024-01-27T12:47:39;14.95;;;4.28;;
12467;SDS011;57850;52.922;6.256;2024-01-27T12:50:06;8.75;;;4.22;;
12467;SDS011;57850;52.922;6.256;2024-01-27T12:52:33;10.18;;;3.78;;
12467;SDS011;57850;52.922;6.256;2024-01-27T12:54:59;10.73;;;4.80;;
12467;SDS011;57850;52.922;6.256;2024-01-27T12:57:27;12.73;;;4.82;;
12467;SDS011;57850;52.922;6.256;2024-01-27T12:59:54;14.75;;;5.45;;
12467;SDS011;57850;52.922;6.256;2024-01-27T13:02:20;22.52;;;4.80;;
12467;SDS011;57850;52.922;6.256;2024-01-27T13:04:47;11.23;;;5.00;;
12467;SDS011;57850;52.922;6.256;2024-01-27T13:07:13;17.58;;;4.95;;
12467;SDS011;57850;52.922;6.256;2024-01-27T13:09:40;12.98;;;4.97;;
12467;SDS011;57850;52.922;6.256;2024-01-27T13:12:06;13.60;;;4.95;;
12467;SDS011;57850;52.922;6.256;2024-01-27T13:14:34;12.85;;;5.53;;
12467;SDS011;57850;52.922;6.256;2024-01-27T13:17:01;9.88;;;5.13;;
12467;SDS011;57850;52.922;6.256;2024-01-27T13:19:27;12.20;;;4.55;;
12467;SDS011;57850;52.922;6.256;2024-01-27T13:21:54;12.70;;;5.18;;
12467;SDS011;57850;52.922;6.256;2024-01-27T13:24:20;15.82;;;4.50;;
12467;SDS011;57850;52.922;6.256;2024-01-27T13:26:47;17.15;;;5.32;;
12467;SDS011;57850;52.922;6.256;2024-01-27T13:29:14;17.27;;;6.35;;
12467;SDS011;57850;52.922;6.256;2024-01-27T13:31:41;15.77;;;5.47;;
12467;SDS011;57850;52.922;6.256;2024-01-27T13:34:08;15.32;;;4.93;;
12467;SDS011;57850;52.922;6.256;2024-01-27T13:36:35;14.18;;;5.82;;
12467;SDS011;57850;52.922;6.256;2024-01-27T13:39:01;17.23;;;7.43;;
12467;SDS011;57850;52.922;6.256;2024-01-27T13:41:27;18.15;;;7.03;;
12467;SDS011;57850;52.922;6.256;2024-01-27T13:43:54;20.88;;;6.93;;
12467;SDS011;57850;52.922;6.256;2024-01-27T13:46:20;13.50;;;6.15;;
12467;SDS011;57850;52.922;6.256;2024-01-27T13:48:48;18.10;;;7.07;;
12467;SDS011;57850;52.922;6.256;2024-01-27T13:51:15;14.52;;;6.15;;
12467;SDS011;57850;52.922;6.256;2024-01-27T13:53:41;17.20;;;5.47;;
12467;SDS011;57850;52.922;6.256;2024-01-27T13:56:07;17.15;;;5.35;;
12467;SDS011;57850;52.922;6.256;2024-01-27T13:58:34;15.00;;;5.53;;
12467;SDS011;57850;52.922;6.256;2024-01-27T14:01:00;15.98;;;5.50;;
12467;SDS011;57850;52.922;6.256;2024-01-27T14:03:28;18.33;;;5.88;;
12467;SDS011;57850;52.922;6.256;2024-01-27T14:05:56;17.33;;;4.65;;
12467;SDS011;57850;52.922;6.256;2024-01-27T14:08:23;15.20;;;4.80;;
12467;SDS011;57850;52.922;6.256;2024-01-27T14:10:49;16.45;;;5.05;;
12467;SDS011;57850;52.922;6.256;2024-01-27T14:13:17;16.58;;;5.07;;
12467;SDS011;57850;52.922;6.256;2024-01-27T14:15:44;21.40;;;6.00;;
12467;SDS011;57850;52.922;6.256;2024-01-27T14:18:10;9.07;;;4.50;;
12467;SDS011;57850;52.922;6.256;2024-01-27T14:20:45;15.43;;;5.82;;
12467;SDS011;57850;52.922;6.256;2024-01-27T14:23:13;12.70;;;4.95;;
12467;SDS011;57850;52.922;6.256;2024-01-27T14:25:39;12.77;;;4.97;;
12467;SDS011;57850;52.922;6.256;2024-01-27T14:28:06;18.88;;;5.28;;
12467;SDS011;57850;52.922;6.256;2024-01-27T14:30:35;16.38;;;5.65;;
12467;SDS011;57850;52.922;6.256;2024-01-27T14:33:02;15.25;;;5.18;;